createdAt,value
2023-01-13T00:02:20.463Z,62.59
2023-01-13T00:04:50.963Z,62.65
2023-01-13T00:07:21.726Z,61.98
2023-01-13T00:09:53.128Z,62.09
2023-01-13T00:12:23.712Z,62.12
2023-01-13T00:14:54.358Z,61.92
2023-01-13T00:17:24.965Z,61.74
2023-01-13T00:19:56.067Z,61.85
2023-01-13T00:22:26.540Z,61.56
2023-01-13T00:24:59.165Z,61.29
2023-01-13T00:27:30.567Z,61.04
2023-01-13T00:30:01.479Z,61.17
2023-01-13T00:32:35.050Z,61.00
2023-01-13T00:35:06.355Z,60.94
2023-01-13T00:37:40.226Z,60.95
2023-01-13T00:40:11.562Z,60.27
2023-01-13T00:43:00.556Z,60.28
2023-01-13T00:45:31.244Z,59.75
2023-01-13T00:48:01.542Z,59.38
2023-01-13T00:50:32.411Z,59.32
2023-01-13T00:53:03.470Z,59.46
2023-01-13T00:55:37.014Z,59.02
2023-01-13T00:58:07.530Z,58.61
2023-01-13T01:00:38.081Z,58.92
2023-01-13T01:03:15.646Z,58.96
2023-01-13T01:05:45.976Z,59.25
2023-01-13T01:08:16.451Z,58.83
2023-01-13T01:10:47.038Z,58.61
2023-01-13T01:13:18.347Z,58.54
2023-01-13T01:15:49.174Z,58.48
2023-01-13T01:18:19.833Z,58.68
2023-01-13T01:20:52.870Z,58.48
2023-01-13T01:23:23.610Z,58.51
2023-01-13T01:25:53.947Z,58.46
2023-01-13T01:28:24.386Z,58.29
2023-01-13T01:30:56.348Z,58.38
2023-01-13T01:33:30.508Z,58.49
2023-01-13T01:36:02.701Z,58.45
2023-01-13T01:38:35.346Z,58.29
2023-01-13T01:41:06.788Z,58.52
2023-01-13T01:44:01.173Z,58.20
2023-01-13T01:46:34.811Z,58.45
2023-01-13T01:49:17.086Z,57.99
2023-01-13T01:52:08.557Z,57.91
2023-01-13T01:54:39.412Z,57.69
2023-01-13T01:57:13.374Z,57.80
2023-01-13T01:59:44.188Z,58.10
2023-01-13T02:02:14.919Z,57.73
2023-01-13T02:04:51.844Z,57.60
2023-01-13T02:07:28.087Z,57.61
2023-01-13T02:10:00.772Z,58.05
2023-01-13T02:12:32.829Z,57.45
2023-01-13T02:15:09.399Z,57.28
2023-01-13T02:18:10.156Z,58.13
2023-01-13T02:21:00.306Z,57.66
2023-01-13T02:24:42.778Z,57.54
2023-01-13T02:27:50.865Z,57.50
2023-01-13T02:30:48.037Z,57.61
2023-01-13T02:34:01.105Z,57.56
2023-01-13T02:36:50.197Z,57.06
2023-01-13T02:40:07.853Z,57.51
2023-01-13T02:43:15.545Z,57.32
2023-01-13T02:46:00.651Z,57.05
2023-01-13T02:48:33.125Z,57.02
2023-01-13T02:51:11.628Z,57.28
2023-01-13T02:53:48.622Z,57.30
2023-01-13T02:56:19.695Z,56.77
2023-01-13T02:58:53.361Z,56.75
2023-01-13T03:01:24.351Z,56.67
2023-01-13T03:03:55.102Z,56.93
2023-01-13T03:06:31.775Z,56.71
2023-01-13T03:09:23.074Z,56.71
2023-01-13T03:12:04.930Z,57.36
2023-01-13T03:14:42.522Z,56.77
2023-01-13T03:18:03.888Z,57.08
2023-01-13T03:20:56.332Z,57.36
2023-01-13T03:23:36.388Z,57.37
2023-01-13T03:26:22.303Z,57.71
2023-01-13T03:29:10.042Z,57.76
2023-01-13T03:31:47.285Z,57.56
2023-01-13T03:34:22.928Z,57.62
2023-01-13T03:36:55.468Z,56.97
2023-01-13T03:39:32.715Z,57.92
2023-01-13T03:42:10.716Z,57.37
2023-01-13T03:44:49.529Z,57.25
2023-01-13T03:47:35.174Z,57.34
2023-01-13T03:50:14.205Z,57.60
2023-01-13T03:52:51.772Z,57.30
2023-01-13T03:55:31.129Z,56.60
2023-01-13T03:58:31.869Z,56.50
2023-01-13T04:01:27.391Z,57.27
2023-01-13T04:04:18.585Z,56.53
2023-01-13T04:07:08.922Z,56.61
2023-01-13T04:09:56.312Z,56.47
2023-01-13T04:13:03.964Z,56.93
2023-01-13T04:15:41.372Z,55.91
2023-01-13T04:18:19.638Z,56.57
2023-01-13T04:20:52.151Z,56.94
2023-01-13T04:23:23.821Z,57.04
2023-01-13T04:25:54.453Z,57.26
2023-01-13T04:28:25.966Z,57.33
2023-01-13T04:30:56.802Z,57.35
2023-01-13T04:33:27.881Z,57.56
2023-01-13T04:35:58.668Z,57.63
2023-01-13T04:38:29.218Z,56.18
2023-01-13T04:40:59.716Z,55.96
2023-01-13T04:43:30.188Z,54.66
2023-01-13T04:46:00.633Z,54.50
2023-01-13T04:48:31.126Z,54.37
2023-01-13T04:51:02.039Z,54.82
2023-01-13T04:53:32.632Z,53.85
2023-01-13T04:56:03.672Z,53.71
2023-01-13T04:58:37.250Z,53.48
2023-01-13T05:01:07.906Z,53.65
2023-01-13T05:03:39.096Z,52.85
2023-01-13T05:06:09.840Z,53.43
2023-01-13T05:08:40.431Z,53.21
2023-01-13T05:11:29.819Z,52.97
2023-01-13T05:14:42.327Z,53.15
2023-01-13T05:17:20.564Z,53.87
2023-01-13T05:19:50.980Z,55.15
2023-01-13T05:22:39.681Z,55.80
2023-01-13T05:25:22.850Z,56.66
2023-01-13T05:28:00.994Z,57.12
2023-01-13T05:30:34.247Z,57.12
2023-01-13T05:33:05.258Z,56.78
2023-01-13T05:35:38.953Z,56.69
2023-01-13T05:38:10.784Z,55.86
2023-01-13T05:41:00.545Z,55.41
2023-01-13T05:43:31.315Z,57.10
2023-01-13T05:46:04.303Z,57.60
2023-01-13T05:48:37.431Z,58.10
2023-01-13T05:51:10.532Z,58.31
2023-01-13T05:53:43.656Z,58.80
2023-01-13T05:56:14.491Z,58.55
2023-01-13T05:58:45.730Z,59.19
2023-01-13T06:01:16.441Z,58.67
2023-01-13T06:03:46.806Z,58.80
2023-01-13T06:06:17.469Z,58.77
2023-01-13T06:08:48.201Z,58.30
2023-01-13T06:11:18.859Z,58.34
2023-01-13T06:13:49.501Z,58.13
2023-01-13T06:16:23.184Z,58.02
2023-01-13T06:18:55.592Z,57.98
2023-01-13T06:21:26.982Z,58.15
2023-01-13T06:23:58.141Z,58.29
2023-01-13T06:26:30.649Z,58.01
2023-01-13T06:29:01.360Z,58.41
2023-01-13T06:31:32.619Z,58.69
2023-01-13T06:34:13.537Z,59.28
2023-01-13T06:36:47.753Z,58.96
2023-01-13T06:39:20.287Z,58.53
2023-01-13T06:42:10.798Z,58.67
2023-01-13T06:44:41.632Z,58.56
2023-01-13T06:47:12.329Z,59.07
2023-01-13T06:49:45.542Z,58.36
2023-01-13T06:52:24.627Z,58.00
2023-01-13T06:54:55.727Z,58.27
2023-01-13T06:57:27.733Z,58.48
2023-01-13T06:59:58.420Z,58.68
2023-01-13T07:02:29.390Z,58.17
2023-01-13T07:05:00.196Z,58.24
2023-01-13T07:07:30.708Z,58.25
2023-01-13T07:10:03.069Z,57.90
2023-01-13T07:12:53.177Z,57.95
2023-01-13T07:15:23.858Z,57.88
2023-01-13T07:17:54.589Z,58.10
2023-01-13T07:20:25.708Z,57.80
2023-01-13T07:22:56.648Z,58.15
2023-01-13T07:25:27.620Z,58.00
2023-01-13T07:27:59.497Z,58.25
2023-01-13T07:30:30.084Z,58.17
2023-01-13T07:33:00.469Z,57.71
2023-01-13T07:35:31.713Z,57.73
2023-01-13T07:38:02.242Z,57.61
2023-01-13T07:40:32.653Z,57.36
2023-01-13T07:43:21.679Z,57.37
2023-01-13T07:45:59.394Z,57.05
2023-01-13T07:48:30.520Z,57.12
2023-01-13T07:51:10.604Z,57.29
2023-01-13T07:53:41.870Z,56.96
2023-01-13T07:56:12.297Z,57.27
2023-01-13T07:58:43.304Z,56.95
2023-01-13T08:01:15.879Z,57.52
2023-01-13T08:03:46.630Z,56.80
2023-01-13T08:06:17.520Z,56.77
2023-01-13T08:08:48.411Z,56.72
2023-01-13T08:11:21.520Z,56.70
2023-01-13T08:13:58.668Z,57.32
2023-01-13T08:16:29.792Z,57.32
2023-01-13T08:19:00.324Z,57.25
2023-01-13T08:21:30.899Z,57.23
2023-01-13T08:24:01.480Z,57.48
2023-01-13T08:26:32.044Z,57.15
2023-01-13T08:29:02.936Z,57.29
2023-01-13T08:31:33.246Z,57.68
2023-01-13T08:34:03.925Z,57.68
2023-01-13T08:36:35.398Z,57.83
2023-01-13T08:39:15.994Z,58.47
2023-01-13T08:42:01.355Z,58.12
2023-01-13T08:44:34.869Z,58.19
2023-01-13T08:47:05.829Z,58.62
2023-01-13T08:49:36.509Z,58.00
2023-01-13T08:52:07.213Z,58.66
2023-01-13T08:54:43.311Z,59.31
2023-01-13T08:57:14.755Z,58.73
2023-01-13T08:59:48.222Z,58.95
2023-01-13T09:02:21.450Z,59.20
2023-01-13T09:04:52.638Z,58.67
2023-01-13T09:07:24.451Z,58.64
2023-01-13T09:09:57.164Z,58.22
2023-01-13T09:12:46.313Z,57.47
2023-01-13T09:15:19.516Z,57.50
2023-01-13T09:17:49.905Z,56.90
2023-01-13T09:20:20.904Z,56.75
2023-01-13T09:22:51.376Z,56.40
2023-01-13T09:25:21.696Z,56.41
2023-01-13T09:27:52.581Z,56.46
2023-01-13T09:30:23.138Z,56.56
2023-01-13T09:33:13.715Z,56.11
2023-01-13T09:35:44.364Z,55.61
2023-01-13T09:38:16.142Z,55.62
2023-01-13T09:40:50.443Z,56.35
2023-01-13T09:43:52.171Z,55.68
2023-01-13T09:46:50.407Z,55.86
2023-01-13T09:49:41.868Z,55.39
2023-01-13T09:52:20.243Z,56.19
2023-01-13T09:54:53.820Z,55.70
2023-01-13T09:57:26.554Z,55.30
2023-01-13T09:59:59.616Z,55.45
2023-01-13T10:02:35.607Z,55.21
2023-01-13T10:05:11.763Z,55.85
2023-01-13T10:07:58.788Z,56.00
2023-01-13T10:10:38.456Z,55.64
2023-01-13T10:13:32.726Z,55.65
2023-01-13T10:16:12.095Z,55.58
2023-01-13T10:19:05.271Z,55.74
2023-01-13T10:21:54.657Z,56.03
2023-01-13T10:24:59.905Z,56.07
2023-01-13T10:27:41.097Z,56.22
2023-01-13T10:30:32.378Z,56.47
2023-01-13T10:33:14.912Z,56.59
2023-01-13T10:36:01.486Z,56.35
2023-01-13T10:38:46.453Z,57.07
2023-01-13T10:41:20.984Z,56.33
2023-01-13T10:43:55.844Z,56.34
2023-01-13T10:46:27.414Z,56.51
2023-01-13T10:49:07.836Z,56.47
2023-01-13T10:51:41.632Z,56.44
2023-01-13T10:54:15.218Z,57.29
2023-01-13T10:56:46.549Z,57.08
2023-01-13T10:59:25.721Z,56.98
2023-01-13T11:02:19.857Z,56.82
2023-01-13T11:04:55.866Z,57.00
2023-01-13T11:07:36.582Z,56.43
2023-01-13T11:10:28.108Z,56.85
2023-01-13T11:13:27.945Z,56.56
2023-01-13T11:16:17.605Z,56.78
2023-01-13T11:19:12.644Z,57.11
2023-01-13T11:21:45.340Z,56.85
2023-01-13T11:24:22.979Z,56.86
2023-01-13T11:26:58.460Z,56.78
2023-01-13T11:29:40.624Z,56.91
2023-01-13T11:32:14.724Z,56.96
2023-01-13T11:34:48.602Z,56.36
2023-01-13T11:37:29.444Z,57.07
2023-01-13T11:40:06.525Z,56.66
2023-01-13T11:42:48.029Z,56.55
2023-01-13T11:45:33.706Z,56.21
2023-01-13T11:48:04.614Z,56.30
2023-01-13T11:50:41.258Z,56.25
2023-01-13T11:53:26.614Z,56.42
2023-01-13T11:56:27.347Z,56.42
2023-01-13T11:59:40.059Z,56.05
2023-01-13T12:02:42.048Z,57.99
2023-01-13T12:05:30.791Z,57.67
2023-01-13T12:08:08.985Z,58.00
2023-01-13T12:10:52.369Z,57.96
2023-01-13T12:13:37.856Z,58.09
2023-01-13T12:16:27.822Z,57.98
2023-01-13T12:19:08.507Z,58.75
2023-01-13T12:21:41.885Z,59.16
2023-01-13T12:24:40.789Z,59.25
2023-01-13T12:27:15.830Z,59.63
2023-01-13T12:29:48.014Z,59.75
2023-01-13T12:32:22.141Z,59.92
2023-01-13T12:35:25.931Z,60.00
2023-01-13T12:38:12.481Z,59.76
2023-01-13T12:40:47.978Z,59.78
2023-01-13T12:43:40.432Z,59.72
2023-01-13T12:46:23.500Z,59.80
2023-01-13T12:49:11.603Z,59.65
2023-01-13T12:51:53.768Z,59.78
2023-01-13T12:54:44.550Z,59.89
2023-01-13T12:57:18.268Z,59.53
2023-01-13T13:00:07.023Z,59.52
2023-01-13T13:03:05.300Z,59.27
2023-01-13T13:05:50.237Z,59.43
2023-01-13T13:08:24.561Z,59.55
2023-01-13T13:11:04.437Z,59.09
2023-01-13T13:13:47.540Z,59.62
2023-01-13T13:16:30.907Z,59.45
2023-01-13T13:19:19.670Z,59.53
2023-01-13T13:22:18.958Z,59.64
2023-01-13T13:24:58.555Z,59.69
2023-01-13T13:27:51.655Z,59.24
2023-01-13T13:30:32.645Z,59.52
2023-01-13T13:34:00.398Z,59.82
2023-01-13T13:36:44.369Z,59.36
2023-01-13T13:39:37.551Z,59.52
2023-01-13T13:42:37.841Z,59.64
2023-01-13T13:45:44.413Z,59.24
2023-01-13T13:48:28.009Z,59.10
2023-01-13T13:51:05.041Z,58.46
2023-01-13T13:53:38.135Z,58.64
2023-01-13T13:56:21.784Z,58.29
2023-01-13T13:58:53.268Z,58.23
2023-01-13T14:01:40.062Z,58.25
2023-01-13T14:04:23.773Z,58.79
2023-01-13T14:06:56.760Z,58.80
2023-01-13T14:09:29.729Z,58.37
2023-01-13T14:12:04.172Z,58.62
2023-01-13T14:14:34.682Z,58.56
2023-01-13T14:17:06.589Z,59.09
2023-01-13T14:19:41.236Z,58.96
2023-01-13T14:22:17.249Z,59.16
2023-01-13T14:24:50.256Z,59.03
2023-01-13T14:27:21.094Z,59.24
2023-01-13T14:29:59.164Z,59.51
2023-01-13T14:32:37.552Z,59.29
2023-01-13T14:35:09.160Z,59.35
2023-01-13T14:37:44.105Z,59.54
2023-01-13T14:40:45.322Z,59.21
2023-01-13T14:43:19.647Z,58.90
2023-01-13T14:46:04.619Z,57.92
2023-01-13T14:48:40.418Z,57.66
2023-01-13T14:51:13.670Z,57.10
2023-01-13T14:53:49.418Z,56.89
2023-01-13T14:56:41.201Z,56.38
2023-01-13T14:59:45.899Z,55.98
2023-01-13T15:02:31.019Z,55.65
2023-01-13T15:05:24.566Z,55.53
2023-01-13T15:08:02.612Z,55.48
2023-01-13T15:10:39.109Z,54.67
2023-01-13T15:13:24.070Z,55.88
2023-01-13T15:16:01.735Z,55.71
2023-01-13T15:18:32.685Z,55.08
2023-01-13T15:21:06.423Z,55.42
2023-01-13T15:23:39.590Z,55.50
2023-01-13T15:26:21.744Z,55.91
2023-01-13T15:28:53.379Z,56.16
2023-01-13T15:31:24.367Z,56.49
2023-01-13T15:33:55.648Z,56.44
2023-01-13T15:36:32.017Z,57.01
2023-01-13T15:39:03.186Z,56.81
2023-01-13T15:41:51.701Z,56.94
2023-01-13T15:44:40.115Z,57.47
2023-01-13T15:47:10.926Z,57.66
2023-01-13T15:49:48.676Z,58.05
2023-01-13T15:52:28.960Z,58.00
2023-01-13T15:54:59.818Z,57.45
2023-01-13T15:57:34.432Z,57.76
2023-01-13T16:00:17.004Z,58.04
2023-01-13T16:02:47.720Z,57.95
2023-01-13T16:05:18.349Z,57.90
2023-01-13T16:07:49.425Z,58.08
2023-01-13T16:10:26.733Z,58.52
2023-01-13T16:12:57.869Z,58.46
2023-01-13T16:15:28.836Z,58.35
2023-01-13T16:18:01.256Z,58.30
2023-01-13T16:20:32.486Z,58.00
2023-01-13T16:23:02.811Z,58.71
2023-01-13T16:25:34.060Z,58.65
2023-01-13T16:28:05.003Z,58.96
2023-01-13T16:30:37.940Z,58.59
2023-01-13T16:33:08.944Z,58.67
2023-01-13T16:35:44.008Z,59.07
2023-01-13T16:38:30.405Z,59.27
2023-01-13T16:41:01.176Z,58.70
2023-01-13T16:43:32.306Z,58.74
2023-01-13T16:46:03.008Z,58.70
2023-01-13T16:48:33.389Z,58.69
2023-01-13T16:51:05.198Z,58.37
2023-01-13T16:53:35.572Z,58.56
2023-01-13T16:56:24.913Z,58.46
2023-01-13T16:58:57.001Z,58.20
2023-01-13T17:01:30.544Z,58.85
2023-01-13T17:04:01.557Z,58.74
2023-01-13T17:06:32.337Z,58.09
2023-01-13T17:09:12.707Z,58.64
2023-01-13T17:11:43.634Z,58.89
2023-01-13T17:14:17.336Z,58.59
2023-01-13T17:16:50.196Z,58.69
2023-01-13T17:19:21.459Z,58.65
2023-01-13T17:21:54.852Z,58.79
2023-01-13T17:24:26.758Z,58.73
2023-01-13T17:26:58.401Z,58.67
2023-01-13T17:29:31.076Z,58.41
2023-01-13T17:32:04.650Z,58.61
2023-01-13T17:34:35.713Z,59.01
2023-01-13T17:37:06.812Z,59.00
2023-01-13T17:39:37.105Z,58.97
2023-01-13T17:42:07.456Z,59.20
2023-01-13T17:44:38.724Z,59.04
2023-01-13T17:47:09.516Z,58.97
2023-01-13T17:49:40.408Z,58.75
2023-01-13T17:52:11.231Z,58.69
2023-01-13T17:54:44.006Z,58.86
2023-01-13T17:57:14.713Z,58.69
2023-01-13T17:59:45.100Z,58.75
2023-01-13T18:02:15.996Z,58.72
2023-01-13T18:04:46.644Z,58.20
2023-01-13T18:07:17.252Z,58.46
2023-01-13T18:09:47.925Z,58.63
2023-01-13T18:12:19.200Z,58.19
2023-01-13T18:14:49.526Z,58.60
2023-01-13T18:17:20.605Z,58.29
2023-01-13T18:20:09.208Z,58.21
2023-01-13T18:23:00.592Z,58.59
2023-01-13T18:25:50.164Z,58.35
2023-01-13T18:28:21.393Z,58.51
2023-01-13T18:30:51.980Z,58.60
2023-01-13T18:33:22.740Z,59.26
2023-01-13T18:35:53.151Z,58.95
2023-01-13T18:38:24.942Z,59.06
2023-01-13T18:40:55.468Z,59.43
2023-01-13T18:43:26.234Z,59.13
2023-01-13T18:45:59.695Z,59.24
2023-01-13T18:48:32.333Z,59.64
2023-01-13T18:51:02.921Z,59.75
2023-01-13T18:53:33.449Z,59.61
2023-01-13T18:56:06.485Z,60.18
2023-01-13T18:58:37.058Z,60.32
2023-01-13T19:01:07.879Z,60.63
2023-01-13T19:03:38.305Z,60.23
2023-01-13T19:06:14.828Z,60.70
2023-01-13T19:08:45.814Z,60.69
2023-01-13T19:11:16.591Z,61.03
2023-01-13T19:13:56.459Z,61.33
2023-01-13T19:16:27.163Z,61.55
2023-01-13T19:18:57.404Z,61.47
2023-01-13T19:21:28.105Z,62.04
2023-01-13T19:23:59.339Z,62.26
2023-01-13T19:26:30.589Z,62.49
2023-01-13T19:29:01.142Z,62.42
2023-01-13T19:31:31.720Z,62.38
2023-01-13T19:34:02.413Z,62.85
2023-01-13T19:36:32.948Z,62.92
2023-01-13T19:39:03.496Z,62.78
2023-01-13T19:41:52.491Z,63.06
2023-01-13T19:44:41.423Z,63.44
2023-01-13T19:47:12.030Z,63.60
2023-01-13T19:49:42.666Z,63.16
2023-01-13T19:52:13.506Z,63.50
2023-01-13T19:54:46.939Z,63.46
2023-01-13T19:57:17.306Z,63.23
2023-01-13T19:59:47.673Z,63.02
2023-01-13T20:02:32.442Z,62.96
2023-01-13T20:05:06.643Z,62.72
2023-01-13T20:07:37.330Z,62.39
2023-01-13T20:10:08.618Z,62.32
2023-01-13T20:12:41.378Z,62.64
2023-01-13T20:15:12.077Z,62.72
2023-01-13T20:17:44.745Z,62.56
2023-01-13T20:20:16.731Z,62.49
2023-01-13T20:22:47.370Z,62.72
2023-01-13T20:25:21.376Z,62.73
2023-01-13T20:27:52.090Z,62.89
2023-01-13T20:30:23.739Z,63.99
2023-01-13T20:32:54.513Z,64.45
2023-01-13T20:35:28.593Z,65.02
2023-01-13T20:37:59.614Z,65.18
2023-01-13T20:40:30.715Z,65.07
2023-01-13T20:43:01.143Z,65.09
2023-01-13T20:45:31.505Z,65.25
2023-01-13T20:48:02.717Z,65.25
2023-01-13T20:50:33.497Z,65.49
2023-01-13T20:53:04.852Z,65.79
2023-01-13T20:55:35.556Z,65.83
2023-01-13T20:58:09.621Z,66.15
2023-01-13T21:00:46.427Z,66.15
2023-01-13T21:03:17.095Z,66.08
2023-01-13T21:05:47.832Z,66.36
2023-01-13T21:08:18.757Z,66.36
2023-01-13T21:10:49.440Z,66.66
2023-01-13T21:13:44.179Z,67.02
2023-01-13T21:16:14.762Z,66.64
2023-01-13T21:19:03.602Z,66.65
2023-01-13T21:21:34.422Z,66.59
2023-01-13T21:24:05.579Z,66.77
2023-01-13T21:26:36.355Z,66.61
2023-01-13T21:29:07.828Z,66.67
2023-01-13T21:31:39.723Z,67.04
2023-01-13T21:34:11.677Z,66.95
2023-01-13T21:36:42.161Z,66.55
2023-01-13T21:39:15.095Z,66.52
2023-01-13T21:42:04.043Z,67.06
2023-01-13T21:44:52.541Z,67.07
2023-01-13T21:47:41.831Z,67.01
2023-01-13T21:50:20.106Z,66.88
2023-01-13T21:52:53.344Z,66.70
2023-01-13T21:55:25.911Z,66.64
2023-01-13T21:58:12.400Z,66.70
2023-01-13T22:00:46.565Z,66.82
2023-01-13T22:03:20.052Z,66.56
2023-01-13T22:05:57.634Z,67.18
2023-01-13T22:08:30.445Z,67.09
2023-01-13T22:11:04.185Z,67.18
2023-01-13T22:13:53.249Z,66.97
2023-01-13T22:16:26.696Z,67.02
2023-01-13T22:19:02.643Z,67.26
2023-01-13T22:21:33.413Z,67.46
2023-01-13T22:24:06.024Z,67.17
2023-01-13T22:26:39.532Z,67.36
2023-01-13T22:29:09.968Z,67.67
2023-01-13T22:31:40.655Z,67.32
2023-01-13T22:34:13.615Z,67.79
2023-01-13T22:36:44.459Z,67.44
2023-01-13T22:39:14.753Z,67.43
2023-01-13T22:41:53.745Z,68.63
2023-01-13T22:44:25.120Z,68.88
2023-01-13T22:46:55.749Z,69.13
2023-01-13T22:49:26.606Z,69.76
2023-01-13T22:51:57.197Z,69.63
2023-01-13T22:54:27.629Z,69.88
2023-01-13T22:56:58.045Z,69.98
2023-01-13T22:59:29.107Z,70.04
2023-01-13T23:02:00.529Z,70.02
2023-01-13T23:04:34.086Z,70.14
2023-01-13T23:07:04.762Z,70.47
2023-01-13T23:09:39.281Z,70.38
2023-01-13T23:12:09.995Z,70.57
2023-01-13T23:14:40.600Z,70.37
2023-01-13T23:17:13.941Z,71.24
2023-01-13T23:19:44.907Z,71.22
2023-01-13T23:22:15.579Z,70.86
2023-01-13T23:24:46.445Z,71.14
2023-01-13T23:27:17.003Z,71.36
2023-01-13T23:29:47.582Z,71.86
2023-01-13T23:32:18.121Z,71.44
2023-01-13T23:34:48.721Z,71.89
2023-01-13T23:37:19.627Z,71.87
2023-01-13T23:39:53.744Z,71.90
2023-01-13T23:42:27.541Z,71.29
2023-01-13T23:44:57.999Z,71.77
2023-01-13T23:47:30.208Z,71.40
2023-01-13T23:50:00.638Z,71.65
2023-01-13T23:52:31.282Z,71.21
2023-01-13T23:55:02.076Z,71.68
2023-01-13T23:57:33.149Z,71.36
